createdAt,value
2022-08-20T00:00:14.965Z,96291.00
2022-08-20T00:02:48.369Z,96287.75
2022-08-20T00:05:21.387Z,96288.91
2022-08-20T00:07:50.283Z,96291.34
2022-08-20T00:10:19.279Z,96295.16
2022-08-20T00:12:49.700Z,96290.28
2022-08-20T00:15:22.286Z,96297.38
2022-08-20T00:17:54.703Z,96297.91
2022-08-20T00:20:26.898Z,96294.84
2022-08-20T00:22:55.749Z,96295.41
2022-08-20T00:25:24.632Z,96297.03
2022-08-20T00:27:53.786Z,96302.41
2022-08-20T00:30:23.580Z,96301.91
2022-08-20T00:32:56.115Z,96307.09
2022-08-20T00:35:27.622Z,96315.06
2022-08-20T00:38:00.558Z,96307.84
2022-08-20T00:40:34.851Z,96304.28
2022-08-20T00:43:06.836Z,96307.84
2022-08-20T00:45:37.114Z,96306.22
2022-08-20T00:48:06.809Z,96305.09
2022-08-20T00:50:39.430Z,96299.31
2022-08-20T00:53:08.910Z,96303.94
2022-08-20T00:55:38.435Z,96307.50
2022-08-20T00:58:09.797Z,96314.91
2022-08-20T01:00:43.190Z,96315.13
2022-08-20T01:03:16.577Z,96307.44
2022-08-20T01:05:48.859Z,96313.19
2022-08-20T01:08:19.570Z,96308.00
2022-08-20T01:10:50.692Z,96312.97
2022-08-20T01:13:23.625Z,96316.03
2022-08-20T01:15:56.383Z,96313.84
2022-08-20T01:18:28.878Z,96310.84
2022-08-20T01:21:00.418Z,96317.13
2022-08-20T01:23:36.547Z,96315.25
2022-08-20T01:26:10.031Z,96316.91
2022-08-20T01:28:41.490Z,96315.25
2022-08-20T01:31:12.523Z,96318.25
2022-08-20T01:33:42.442Z,96316.03
2022-08-20T01:36:13.291Z,96314.41
2022-08-20T01:38:53.977Z,96314.59
2022-08-20T01:41:36.335Z,96314.31
2022-08-20T01:44:05.943Z,96312.38
2022-08-20T01:46:43.927Z,96311.28
2022-08-20T01:49:22.869Z,96318.97
2022-08-20T01:51:54.623Z,96314.84
2022-08-20T01:54:24.559Z,96318.47
2022-08-20T01:57:03.718Z,96312.16
2022-08-20T01:59:32.114Z,96313.28
2022-08-20T02:02:02.951Z,96320.69
2022-08-20T02:04:31.865Z,96317.41
2022-08-20T02:07:04.227Z,96322.06
2022-08-20T02:09:37.895Z,96319.06
2022-08-20T02:12:09.971Z,96324.00
2022-08-20T02:14:42.693Z,96322.88
2022-08-20T02:17:12.756Z,96328.97
2022-08-20T02:19:45.514Z,96323.28
2022-08-20T02:22:21.773Z,96324.09
2022-08-20T02:24:51.873Z,96334.75
2022-08-20T02:27:24.264Z,96325.72
2022-08-20T02:29:54.372Z,96341.88
2022-08-20T02:32:34.026Z,96327.88
2022-08-20T02:35:03.798Z,96331.41
2022-08-20T02:37:33.291Z,96328.38
2022-08-20T02:40:01.858Z,96340.19
2022-08-20T02:42:32.172Z,96336.84
2022-08-20T02:45:00.626Z,96334.41
2022-08-20T02:47:29.770Z,96330.31
2022-08-20T02:49:59.503Z,96338.53
2022-08-20T02:52:29.300Z,96339.34
2022-08-20T02:54:57.592Z,96338.53
2022-08-20T02:57:26.312Z,96339.66
2022-08-20T02:59:56.971Z,96341.06
2022-08-20T03:02:25.439Z,96339.44
2022-08-20T03:04:54.207Z,96344.91
2022-08-20T03:07:22.656Z,96349.84
2022-08-20T03:09:51.687Z,96344.91
2022-08-20T03:12:20.603Z,96346.84
2022-08-20T03:14:48.894Z,96347.97
2022-08-20T03:17:19.298Z,96352.03
2022-08-20T03:19:47.615Z,96350.41
2022-08-20T03:22:16.708Z,96354.78
2022-08-20T03:24:45.399Z,96352.03
2022-08-20T03:27:14.706Z,96350.69
2022-08-20T03:29:43.099Z,96346.03
2022-08-20T03:32:11.902Z,96352.59
2022-08-20T03:34:41.575Z,96350.69
2022-08-20T03:37:12.139Z,96355.34
2022-08-20T03:39:41.130Z,96355.88
2022-08-20T03:42:10.446Z,96363.50
2022-08-20T03:44:38.831Z,96356.41
2022-08-20T03:47:09.691Z,96366.78
2022-08-20T03:49:38.422Z,96362.94
2022-08-20T03:52:08.188Z,96366.19
2022-08-20T03:54:37.474Z,96363.16
2022-08-20T03:57:12.859Z,96366.19
2022-08-20T03:59:41.784Z,96366.72
2022-08-20T04:02:11.440Z,96364.50
2022-08-20T04:04:41.018Z,96375.47
2022-08-20T04:07:16.179Z,96371.09
2022-08-20T04:09:45.451Z,96371.63
2022-08-20T04:12:14.315Z,96376.28
2022-08-20T04:14:43.558Z,96378.19
2022-08-20T04:17:14.140Z,96373.84
2022-08-20T04:19:44.716Z,96376.28
2022-08-20T04:22:15.072Z,96380.44
2022-08-20T04:24:44.528Z,96372.19
2022-08-20T04:27:14.728Z,96382.59
2022-08-20T04:29:44.543Z,96379.88
2022-08-20T04:32:14.338Z,96377.94
2022-08-20T04:34:47.282Z,96377.63
2022-08-20T04:37:21.580Z,96386.97
2022-08-20T04:40:10.046Z,96388.59
2022-08-20T04:42:39.194Z,96392.69
2022-08-20T04:45:09.420Z,96385.81
2022-08-20T04:47:38.371Z,96385.81
2022-08-20T04:50:10.647Z,96387.13
2022-08-20T04:52:40.582Z,96378.09
2022-08-20T04:55:11.273Z,96382.69
2022-08-20T04:57:39.685Z,96382.97
2022-08-20T05:00:11.440Z,96394.75
2022-08-20T05:02:39.915Z,96395.59
2022-08-20T05:05:09.240Z,96396.94
2022-08-20T05:07:43.383Z,96401.81
2022-08-20T05:10:15.855Z,96405.38
2022-08-20T05:12:55.630Z,96407.00
2022-08-20T05:15:26.840Z,96410.56
2022-08-20T05:17:57.391Z,96412.75
2022-08-20T05:20:27.329Z,96421.50
2022-08-20T05:22:57.723Z,96420.69
2022-08-20T05:25:29.350Z,96428.09
2022-08-20T05:28:01.060Z,96427.28
2022-08-20T05:30:33.318Z,96426.69
2022-08-20T05:33:05.776Z,96431.06
2022-08-20T05:35:39.181Z,96432.41
2022-08-20T05:38:12.887Z,96435.66
2022-08-20T05:40:43.140Z,96427.22
2022-08-20T05:43:12.295Z,96422.56
2022-08-20T05:45:44.771Z,96435.97
2022-08-20T05:48:15.702Z,96426.63
2022-08-20T05:50:46.706Z,96437.00
2022-08-20T05:53:17.657Z,96435.59
2022-08-20T05:55:49.404Z,96447.41
2022-08-20T05:58:20.748Z,96441.91
2022-08-20T06:00:49.716Z,96445.47
2022-08-20T06:03:36.305Z,96442.13
2022-08-20T06:06:05.696Z,96443.50
2022-08-20T06:08:55.840Z,96441.03
2022-08-20T06:11:24.169Z,96435.25
2022-08-20T06:13:53.191Z,96439.56
2022-08-20T06:16:21.566Z,96442.31
2022-08-20T06:18:50.711Z,96432.41
2022-08-20T06:21:19.666Z,96435.16
2022-08-20T06:23:57.276Z,96434.28
2022-08-20T06:26:30.879Z,96438.09
2022-08-20T06:29:00.301Z,96435.06
2022-08-20T06:31:29.156Z,96435.06
2022-08-20T06:33:57.818Z,96432.84
2022-08-20T06:36:27.902Z,96431.41
2022-08-20T06:38:58.308Z,96439.91
2022-08-20T06:41:35.806Z,96434.41
2022-08-20T06:44:07.588Z,96439.28
2022-08-20T06:46:36.400Z,96446.13
2022-08-20T06:49:06.373Z,96444.22
2022-08-20T06:51:35.626Z,96444.41
2022-08-20T06:54:04.135Z,96438.66
2022-08-20T06:56:33.025Z,96445.47
2022-08-20T06:59:02.264Z,96454.72
2022-08-20T07:01:32.316Z,96454.44
2022-08-20T07:04:00.661Z,96453.91
2022-08-20T07:06:29.621Z,96457.78
2022-08-20T07:08:58.374Z,96462.44
2022-08-20T07:11:28.547Z,96456.97
2022-08-20T07:13:58.607Z,96457.88
2022-08-20T07:16:27.227Z,96461.94
2022-08-20T07:18:58.816Z,96464.69
2022-08-20T07:21:27.194Z,96462.97
2022-08-20T07:23:56.129Z,96466.56
2022-08-20T07:26:24.604Z,96469.88
2022-08-20T07:28:53.243Z,96470.50
2022-08-20T07:31:42.157Z,96465.00
2022-08-20T07:34:14.164Z,96465.00
2022-08-20T07:36:43.954Z,96461.50
2022-08-20T07:39:13.066Z,96461.81
2022-08-20T07:41:41.791Z,96468.97
2022-08-20T07:44:10.160Z,96473.16
2022-08-20T07:46:39.211Z,96473.66
2022-08-20T07:49:10.041Z,96477.00
2022-08-20T07:51:40.766Z,96482.19
2022-08-20T07:54:09.114Z,96486.88
2022-08-20T07:56:37.839Z,96486.34
2022-08-20T07:59:06.336Z,96487.22
2022-08-20T08:01:35.631Z,96489.06
2022-08-20T08:04:04.910Z,96491.38
2022-08-20T08:06:34.183Z,96498.75
2022-08-20T08:09:10.261Z,96485.03
2022-08-20T08:11:47.277Z,96494.34
2022-08-20T08:14:18.925Z,96494.34
2022-08-20T08:16:48.488Z,96502.00
2022-08-20T08:19:19.300Z,96499.78
2022-08-20T08:21:48.552Z,96498.69
2022-08-20T08:24:21.697Z,96507.94
2022-08-20T08:26:52.880Z,96507.94
2022-08-20T08:29:21.290Z,96510.94
2022-08-20T08:31:50.599Z,96507.31
2022-08-20T08:34:18.920Z,96518.28
2022-08-20T08:36:48.924Z,96518.28
2022-08-20T08:39:18.766Z,96519.38
2022-08-20T08:41:50.800Z,96523.19
2022-08-20T08:44:24.164Z,96526.53
2022-08-20T08:46:56.582Z,96529.84
2022-08-20T08:49:38.139Z,96536.16
2022-08-20T08:52:14.699Z,96535.66
2022-08-20T08:54:50.519Z,96547.75
2022-08-20T08:57:19.396Z,96542.16
2022-08-20T09:00:03.987Z,96546.84
2022-08-20T09:02:36.356Z,96543.59
2022-08-20T09:05:15.987Z,96549.88
2022-08-20T09:07:48.679Z,96548.56
2022-08-20T09:10:23.117Z,96543.63
2022-08-20T09:12:52.271Z,96547.59
2022-08-20T09:15:21.883Z,96543.44
2022-08-20T09:17:50.348Z,96545.34
2022-08-20T09:20:19.739Z,96549.94
2022-08-20T09:22:51.476Z,96552.94
2022-08-20T09:25:23.055Z,96548.88
2022-08-20T09:27:51.844Z,96555.69
2022-08-20T09:30:20.347Z,96546.94
2022-08-20T09:32:49.613Z,96558.13
2022-08-20T09:35:18.466Z,96552.06
2022-08-20T09:37:46.992Z,96551.25
2022-08-20T09:40:22.873Z,96551.53
2022-08-20T09:42:52.047Z,96548.22
2022-08-20T09:45:21.038Z,96543.53
2022-08-20T09:47:56.387Z,96548.72
2022-08-20T09:50:49.014Z,96547.66
2022-08-20T09:53:20.799Z,96548.72
2022-08-20T09:55:53.723Z,96548.13
2022-08-20T09:58:27.351Z,96554.97
2022-08-20T10:00:55.727Z,96549.69
2022-08-20T10:03:24.690Z,96556.59
2022-08-20T10:05:53.394Z,96552.75
2022-08-20T10:08:22.110Z,96550.50
2022-08-20T10:10:52.320Z,96548.56
2022-08-20T10:13:20.663Z,96552.13
2022-08-20T10:15:49.642Z,96552.75
2022-08-20T10:18:18.055Z,96549.38
2022-08-20T10:20:46.884Z,96557.88
2022-08-20T10:23:15.455Z,96554.81
2022-08-20T10:25:44.803Z,96550.22
2022-08-20T10:28:14.999Z,96545.00
2022-08-20T10:30:45.074Z,96545.31
2022-08-20T10:33:13.846Z,96550.00
2022-08-20T10:35:42.150Z,96554.38
2022-08-20T10:38:10.479Z,96564.31
2022-08-20T10:40:38.825Z,96560.38
2022-08-20T10:43:07.219Z,96557.06
2022-08-20T10:45:37.345Z,96556.44
2022-08-20T10:48:08.798Z,96568.25
2022-08-20T10:50:37.935Z,96564.69
2022-08-20T10:53:06.758Z,96568.03
2022-08-20T10:55:35.160Z,96575.16
2022-08-20T10:58:06.802Z,96578.22
2022-08-20T11:00:36.140Z,96577.97
2022-08-20T11:03:05.815Z,96567.53
2022-08-20T11:05:34.715Z,96580.19
2022-08-20T11:08:05.139Z,96569.28
2022-08-20T11:10:37.043Z,96574.25
2022-08-20T11:13:07.603Z,96577.25
2022-08-20T11:15:39.113Z,96575.81
2022-08-20T11:18:10.554Z,96579.38
2022-08-20T11:20:38.919Z,96581.03
2022-08-20T11:23:07.695Z,96577.47
2022-08-20T11:25:36.051Z,96587.84
2022-08-20T11:28:06.442Z,96574.72
2022-08-20T11:30:37.002Z,96583.25
2022-08-20T11:33:06.793Z,96578.56
2022-08-20T11:35:49.079Z,96579.38
2022-08-20T11:38:18.979Z,96579.34
2022-08-20T11:40:47.709Z,96579.91
2022-08-20T11:43:17.441Z,96576.66
2022-08-20T11:45:48.973Z,96580.16
2022-08-20T11:48:18.020Z,96579.03
2022-08-20T11:50:49.008Z,96581.47
2022-08-20T11:53:17.739Z,96580.66
2022-08-20T11:55:47.917Z,96583.19
2022-08-20T11:58:16.385Z,96578.06
2022-08-20T12:00:45.010Z,96580.00
2022-08-20T12:03:13.857Z,96581.91
2022-08-20T12:05:44.910Z,96574.84
2022-08-20T12:08:27.058Z,96580.25
2022-08-20T12:10:59.160Z,96576.69
2022-08-20T12:13:30.945Z,96576.44
2022-08-20T12:16:16.699Z,96569.28
2022-08-20T12:18:45.837Z,96565.13
2022-08-20T12:21:14.428Z,96573.84
2022-08-20T12:23:44.523Z,96569.16
2022-08-20T12:26:13.147Z,96564.69
2022-08-20T12:28:41.527Z,96564.41
2022-08-20T12:31:10.394Z,96564.69
2022-08-20T12:33:38.921Z,96556.28
2022-08-20T12:36:08.110Z,96558.22
2022-08-20T12:38:36.507Z,96560.09
2022-08-20T12:41:06.528Z,96557.63
2022-08-20T12:43:34.889Z,96556.66
2022-08-20T12:46:03.266Z,96551.72
2022-08-20T12:48:31.643Z,96543.31
2022-08-20T12:51:00.010Z,96559.06
2022-08-20T12:53:28.800Z,96553.41
2022-08-20T12:55:57.131Z,96548.53
2022-08-20T12:58:27.580Z,96549.47
2022-08-20T13:00:55.905Z,96556.03
2022-08-20T13:03:24.776Z,96559.59
2022-08-20T13:05:53.479Z,96548.22
2022-08-20T13:08:22.335Z,96557.59
2022-08-20T13:10:50.632Z,96550.97
2022-08-20T13:13:20.779Z,96547.56
2022-08-20T13:15:51.839Z,96548.22
2022-08-20T13:18:21.528Z,96545.84
2022-08-20T13:20:50.522Z,96548.47
2022-08-20T13:23:19.256Z,96543.38
2022-08-20T13:25:47.995Z,96546.56
2022-08-20T13:28:16.363Z,96547.06
2022-08-20T13:30:45.282Z,96540.97
2022-08-20T13:33:15.217Z,96541.50
2022-08-20T13:35:43.894Z,96543.44
2022-08-20T13:38:12.604Z,96537.63
2022-08-20T13:40:41.163Z,96536.88
2022-08-20T13:43:11.851Z,96547.66
2022-08-20T13:45:42.443Z,96538.81
2022-08-20T13:48:14.973Z,96542.50
2022-08-20T13:50:46.907Z,96541.72
2022-08-20T13:53:17.439Z,96544.59
2022-08-20T13:55:47.119Z,96539.19
2022-08-20T13:58:15.811Z,96539.19
2022-08-20T14:00:45.318Z,96537.19
2022-08-20T14:03:13.898Z,96538.06
2022-08-20T14:05:50.494Z,96531.59
2022-08-20T14:08:21.160Z,96533.31
2022-08-20T14:10:51.795Z,96535.31
2022-08-20T14:13:22.605Z,96543.84
2022-08-20T14:15:51.604Z,96547.13
2022-08-20T14:18:20.230Z,96535.78
2022-08-20T14:20:50.710Z,96531.78
2022-08-20T14:23:19.198Z,96538.53
2022-08-20T14:25:49.900Z,96536.97
2022-08-20T14:28:21.083Z,96530.75
2022-08-20T14:30:53.204Z,96524.31
2022-08-20T14:33:23.394Z,96526.56
2022-08-20T14:35:54.513Z,96522.91
2022-08-20T14:38:24.178Z,96527.94
2022-08-20T14:40:53.006Z,96528.25
2022-08-20T14:43:21.414Z,96525.38
2022-08-20T14:45:49.783Z,96521.66
2022-08-20T14:48:18.835Z,96527.19
2022-08-20T14:50:47.258Z,96523.00
2022-08-20T14:53:17.536Z,96524.69
2022-08-20T14:55:47.024Z,96529.19
2022-08-20T14:58:17.388Z,96520.03
2022-08-20T15:00:47.279Z,96524.38
2022-08-20T15:03:15.927Z,96517.06
2022-08-20T15:05:44.239Z,96527.06
2022-08-20T15:08:13.338Z,96515.75
2022-08-20T15:10:43.647Z,96527.78
2022-08-20T15:16:02.700Z,96524.84
2022-08-20T15:18:31.442Z,96530.28
2022-08-20T15:20:59.922Z,96530.78
2022-08-20T15:23:28.635Z,96530.69
2022-08-20T15:25:58.527Z,96534.66
2022-08-20T15:28:27.300Z,96539.44
2022-08-20T15:30:55.989Z,96536.19
2022-08-20T15:33:24.377Z,96537.53
2022-08-20T15:35:52.725Z,96543.06
2022-08-20T15:38:21.011Z,96543.75
2022-08-20T15:40:49.745Z,96544.88
2022-08-20T15:43:19.532Z,96543.25
2022-08-20T15:45:48.250Z,96533.03
2022-08-20T15:48:19.147Z,96537.22
2022-08-20T15:51:03.933Z,96548.84
2022-08-20T15:53:40.666Z,96540.41
2022-08-20T15:56:16.638Z,96542.84
2022-08-20T15:58:59.371Z,96534.88
2022-08-20T16:01:37.148Z,96540.91
2022-08-20T16:04:51.955Z,96542.09
2022-08-20T16:07:25.862Z,96545.25
2022-08-20T16:10:04.632Z,96540.44
2022-08-20T16:12:37.121Z,96542.84
2022-08-20T16:15:12.957Z,96547.50
2022-08-20T16:17:45.750Z,96554.00
2022-08-20T16:20:22.175Z,96554.78
2022-08-20T16:22:53.210Z,96567.53
2022-08-20T16:25:28.268Z,96569.31
2022-08-20T16:28:06.178Z,96579.56
2022-08-20T16:30:44.411Z,96569.16
2022-08-20T16:33:20.735Z,96572.53
2022-08-20T16:35:55.652Z,96585.44
2022-08-20T16:38:42.108Z,96587.91
2022-08-20T16:41:15.935Z,96578.84
2022-08-20T16:43:53.787Z,96573.91
2022-08-20T16:46:27.106Z,96567.09
2022-08-20T16:48:58.818Z,96578.09
2022-08-20T16:51:37.594Z,96580.03
2022-08-20T16:54:07.644Z,96585.00
2022-08-20T16:56:38.569Z,96578.41
2022-08-20T16:59:12.104Z,96582.53
2022-08-20T17:02:07.294Z,96579.56
2022-08-20T17:04:58.698Z,96588.63
2022-08-20T17:07:33.522Z,96581.50
2022-08-20T17:10:13.147Z,96582.63
2022-08-20T17:12:41.507Z,96586.75
2022-08-20T17:15:21.063Z,96584.81
2022-08-20T17:17:50.854Z,96579.13
2022-08-20T17:20:20.485Z,96584.09
2022-08-20T17:22:52.842Z,96580.50
2022-08-20T17:25:35.745Z,96578.88
2022-08-20T17:28:14.620Z,96585.72
2022-08-20T17:30:43.516Z,96571.75
2022-08-20T17:33:27.141Z,96584.38
2022-08-20T17:35:58.079Z,96584.09
2022-08-20T17:38:36.028Z,96583.50
2022-08-20T17:41:16.735Z,96582.69
2022-08-20T17:43:46.988Z,96592.03
2022-08-20T17:46:18.600Z,96583.81
2022-08-20T17:48:50.212Z,96589.81
2022-08-20T17:51:21.527Z,96593.97
2022-08-20T17:53:54.357Z,96596.44
2022-08-20T17:56:25.174Z,96598.66
2022-08-20T17:58:59.111Z,96603.56
2022-08-20T18:01:32.492Z,96602.44
2022-08-20T18:04:02.382Z,96604.44
2022-08-20T18:06:45.059Z,96595.97
2022-08-20T18:09:19.300Z,96599.84
2022-08-20T18:11:53.498Z,96603.69
2022-08-20T18:14:42.919Z,96610.88
2022-08-20T18:17:33.184Z,96612.56
2022-08-20T18:20:21.082Z,96609.31
2022-08-20T18:22:54.527Z,96605.75
2022-08-20T18:25:32.594Z,96613.53
2022-08-20T18:28:08.448Z,96611.38
2022-08-20T18:30:48.446Z,96602.31
2022-08-20T18:33:27.164Z,96609.66
2022-08-20T18:36:11.299Z,96614.34
2022-08-20T18:38:43.396Z,96614.13
2022-08-20T18:41:15.751Z,96613.00
2022-08-20T18:43:44.546Z,96621.25
2022-08-20T18:46:20.554Z,96618.03
2022-08-20T18:48:58.559Z,96612.59
2022-08-20T18:51:35.635Z,96617.06
2022-08-20T18:54:05.229Z,96625.84
2022-08-20T18:56:38.497Z,96624.47
2022-08-20T18:59:12.859Z,96620.66
2022-08-20T19:01:43.043Z,96616.81
2022-08-20T19:04:28.986Z,96617.31
2022-08-20T19:07:02.655Z,96615.38
2022-08-20T19:09:52.128Z,96610.81
2022-08-20T19:12:34.796Z,96616.81
2022-08-20T19:15:07.462Z,96615.72
2022-08-20T19:20:39.823Z,96616.81
2022-08-20T19:23:14.112Z,96610.25
2022-08-20T19:25:55.291Z,96623.16
2022-08-20T19:28:32.988Z,96620.16
2022-08-20T19:31:11.339Z,96615.31
2022-08-20T19:33:44.136Z,96609.88
2022-08-20T19:36:17.330Z,96615.34
2022-08-20T19:38:51.060Z,96606.25
2022-08-20T19:41:28.864Z,96595.84
2022-08-20T19:44:01.291Z,96592.88
2022-08-20T19:46:32.425Z,96607.16
2022-08-20T19:49:19.513Z,96597.84
2022-08-20T19:51:56.983Z,96603.34
2022-08-20T19:54:28.520Z,96600.34
2022-08-20T19:56:59.289Z,96604.72
2022-08-20T19:59:28.914Z,96600.81
2022-08-20T20:02:02.879Z,96601.06
2022-08-20T20:04:40.055Z,96596.63
2022-08-20T20:07:17.174Z,96594.69
2022-08-20T20:09:51.233Z,96600.16
2022-08-20T20:12:22.947Z,96596.91
2022-08-20T20:14:53.711Z,96602.91
2022-08-20T20:17:25.236Z,96598.53
2022-08-20T20:19:59.066Z,96604.84
2022-08-20T20:22:30.805Z,96602.09
2022-08-20T20:25:05.282Z,96594.97
2022-08-20T20:27:36.837Z,96597.44
2022-08-20T20:30:08.211Z,96598.25
2022-08-20T20:32:40.707Z,96592.19
2022-08-20T20:35:09.166Z,96596.88
2022-08-20T20:37:50.673Z,96593.56
2022-08-20T20:40:27.497Z,96590.56
2022-08-20T20:43:03.303Z,96591.63
2022-08-20T20:45:36.032Z,96588.06
2022-08-20T20:48:16.527Z,96596.56
2022-08-20T20:50:47.270Z,96589.44
2022-08-20T20:53:32.299Z,96587.00
2022-08-20T20:56:30.937Z,96590.56
2022-08-20T20:59:05.499Z,96588.31
2022-08-20T21:01:48.200Z,96586.44
2022-08-20T21:04:20.715Z,96581.50
2022-08-20T21:06:50.146Z,96581.78
2022-08-20T21:09:20.333Z,96581.50
2022-08-20T21:11:51.011Z,96570.78
2022-08-20T21:14:20.486Z,96569.69
2022-08-20T21:16:49.108Z,96574.34
2022-08-20T21:19:18.612Z,96578.47
2022-08-20T21:21:47.166Z,96572.16
2022-08-20T21:24:16.195Z,96577.41
2022-08-20T21:26:45.409Z,96569.97
2022-08-20T21:29:25.794Z,96567.81
2022-08-20T21:31:57.064Z,96578.03
2022-08-20T21:34:26.259Z,96575.53
2022-08-20T21:36:54.997Z,96575.75
2022-08-20T21:39:26.312Z,96582.38
2022-08-20T21:41:57.523Z,96582.06
2022-08-20T21:44:29.624Z,96584.53
2022-08-20T21:46:59.716Z,96581.50
2022-08-20T21:49:29.679Z,96583.41
2022-08-20T21:51:59.119Z,96583.69
2022-08-20T21:54:28.781Z,96585.63
2022-08-20T21:57:00.219Z,96589.19
2022-08-20T21:59:30.022Z,96591.94
2022-08-20T22:01:59.064Z,96590.00
2022-08-20T22:04:27.565Z,96585.88
2022-08-20T22:06:56.731Z,96582.59
2022-08-20T22:09:25.162Z,96593.31
2022-08-20T22:11:55.747Z,96592.47
2022-08-20T22:14:26.673Z,96585.88
2022-08-20T22:16:56.779Z,96576.28
2022-08-20T22:19:26.407Z,96576.56
2022-08-20T22:21:56.606Z,96581.25
2022-08-20T22:24:27.868Z,96574.66
2022-08-20T22:26:56.828Z,96575.75
2022-08-20T22:29:25.491Z,96574.13
2022-08-20T22:31:56.105Z,96572.50
2022-08-20T22:34:24.596Z,96568.38
2022-08-20T22:36:55.187Z,96574.44
2022-08-20T22:39:24.321Z,96575.00
2022-08-20T22:41:53.495Z,96571.44
2022-08-20T22:44:21.807Z,96567.56
2022-08-20T22:46:55.688Z,96567.56
2022-08-20T22:49:30.407Z,96573.88
2022-08-20T22:51:58.862Z,96567.06
2022-08-20T22:54:27.784Z,96568.16
2022-08-20T22:56:56.981Z,96562.16
2022-08-20T22:59:25.461Z,96571.47
2022-08-20T23:01:55.081Z,96564.34
2022-08-20T23:04:28.243Z,96561.63
2022-08-20T23:06:58.411Z,96561.09
2022-08-20T23:09:27.780Z,96558.34
2022-08-20T23:11:59.590Z,96554.19
2022-08-20T23:14:28.383Z,96552.28
2022-08-20T23:17:04.252Z,96555.00
2022-08-20T23:19:34.742Z,96549.00
2022-08-20T23:22:03.202Z,96551.75
2022-08-20T23:24:32.663Z,96549.00
2022-08-20T23:27:01.509Z,96548.50
2022-08-20T23:29:31.131Z,96550.97
2022-08-20T23:31:59.926Z,96542.75
2022-08-20T23:34:29.190Z,96541.72
2022-08-20T23:37:01.338Z,96541.41
2022-08-20T23:39:31.311Z,96544.97
2022-08-20T23:42:01.240Z,96541.41
2022-08-20T23:44:30.141Z,96535.94
2022-08-20T23:47:02.906Z,96531.25
2022-08-20T23:49:32.839Z,96542.22
2022-08-20T23:52:02.751Z,96539.78
2022-08-20T23:54:34.135Z,96531.84
2022-08-20T23:57:02.959Z,96532.66
2022-08-20T23:59:36.820Z,96531.84
